createdAt,value
2017-10-06T00:00:57.061Z,80.13
2017-10-06T00:03:24.670Z,80.36
2017-10-06T00:05:52.307Z,79.99
2017-10-06T00:08:19.888Z,79.90
2017-10-06T00:10:47.484Z,80.50
2017-10-06T00:13:15.120Z,80.55
2017-10-06T00:15:42.723Z,80.67
2017-10-06T00:18:10.323Z,80.10
2017-10-06T00:20:37.985Z,79.81
2017-10-06T00:23:05.596Z,79.99
2017-10-06T00:25:33.205Z,80.12
2017-10-06T00:28:00.832Z,80.07
2017-10-06T00:30:28.426Z,79.71
2017-10-06T00:32:56.016Z,80.04
2017-10-06T00:35:23.649Z,80.22
2017-10-06T00:37:51.247Z,80.09
2017-10-06T00:40:18.852Z,79.90
2017-10-06T00:42:46.484Z,80.02
2017-10-06T00:45:14.078Z,79.97
2017-10-06T00:47:41.675Z,80.28
2017-10-06T00:50:09.305Z,80.02
2017-10-06T00:52:36.945Z,79.87
2017-10-06T00:55:04.577Z,80.09
2017-10-06T00:57:32.214Z,79.82
2017-10-06T00:59:59.820Z,80.39
2017-10-06T01:02:27.743Z,80.30
2017-10-06T01:04:55.364Z,80.63
2017-10-06T01:07:22.947Z,80.74
2017-10-06T01:09:50.845Z,80.56
2017-10-06T01:12:18.802Z,80.50
2017-10-06T01:14:46.673Z,80.63
2017-10-06T01:17:14.261Z,80.75
2017-10-06T01:19:41.884Z,80.37
2017-10-06T01:22:09.478Z,80.33
2017-10-06T01:24:37.076Z,80.58
2017-10-06T01:27:04.707Z,80.87
2017-10-06T01:29:32.549Z,80.91
2017-10-06T01:32:00.144Z,80.69
2017-10-06T01:34:27.762Z,80.49
2017-10-06T01:36:55.361Z,80.52
2017-10-06T01:39:22.954Z,81.05
2017-10-06T01:41:50.600Z,81.38
2017-10-06T01:44:18.539Z,81.36
2017-10-06T01:46:46.136Z,81.15
2017-10-06T01:49:13.774Z,81.24
2017-10-06T01:51:41.363Z,81.35
2017-10-06T01:54:08.969Z,81.33
2017-10-06T01:56:36.603Z,81.50
2017-10-06T01:59:04.185Z,81.67
2017-10-06T02:01:31.776Z,81.61
2017-10-06T02:03:59.422Z,81.51
2017-10-06T02:06:27.022Z,81.21
2017-10-06T02:08:55.109Z,80.95
2017-10-06T02:11:22.734Z,81.04
2017-10-06T02:13:50.387Z,81.08
2017-10-06T02:16:17.984Z,81.68
2017-10-06T02:18:45.630Z,81.42
2017-10-06T02:21:13.247Z,81.55
2017-10-06T02:23:41.141Z,81.45
2017-10-06T02:26:08.771Z,81.04
2017-10-06T02:28:36.355Z,81.46
2017-10-06T02:31:03.943Z,81.11
2017-10-06T02:33:31.574Z,81.36
2017-10-06T02:35:59.171Z,81.17
2017-10-06T02:38:26.772Z,81.12
2017-10-06T02:40:54.409Z,81.52
2017-10-06T02:43:22.000Z,81.83
2017-10-06T02:45:49.586Z,82.16
2017-10-06T02:48:17.230Z,82.31
2017-10-06T02:50:44.824Z,81.97
2017-10-06T02:53:12.535Z,82.29
2017-10-06T02:55:40.452Z,82.02
2017-10-06T02:58:08.052Z,81.92
2017-10-06T03:00:35.881Z,81.90
2017-10-06T03:03:03.533Z,81.96
2017-10-06T03:05:31.121Z,81.85
2017-10-06T03:07:58.717Z,82.03
2017-10-06T03:10:26.358Z,81.97
2017-10-06T03:12:53.958Z,81.50
2017-10-06T03:15:21.552Z,81.43
2017-10-06T03:17:49.184Z,81.49
2017-10-06T03:20:16.775Z,81.72
2017-10-06T03:22:44.372Z,81.17
2017-10-06T03:25:11.997Z,81.05
2017-10-06T03:27:39.866Z,80.67
2017-10-06T03:30:07.473Z,80.35
2017-10-06T03:32:35.097Z,80.60
2017-10-06T03:35:02.699Z,80.75
2017-10-06T03:37:30.288Z,80.90
2017-10-06T03:39:57.960Z,80.96
2017-10-06T03:42:25.595Z,80.71
2017-10-06T03:44:53.177Z,80.31
2017-10-06T03:47:20.822Z,81.06
2017-10-06T03:49:48.410Z,81.62
2017-10-06T03:52:15.996Z,82.60
2017-10-06T03:54:43.680Z,83.37
2017-10-06T03:57:11.265Z,83.56
2017-10-06T03:59:38.849Z,82.86
2017-10-06T04:02:06.505Z,83.58
2017-10-06T04:04:34.088Z,83.26
2017-10-06T04:07:01.676Z,83.26
2017-10-06T04:09:29.304Z,82.91
2017-10-06T04:11:57.185Z,82.89
2017-10-06T04:14:24.774Z,82.99
2017-10-06T04:16:52.405Z,82.70
2017-10-06T04:19:20.005Z,82.54
2017-10-06T04:21:47.593Z,82.43
2017-10-06T04:24:15.228Z,82.64
2017-10-06T04:26:42.832Z,83.37
2017-10-06T04:29:10.462Z,83.61
2017-10-06T04:31:38.166Z,83.75
2017-10-06T04:34:05.767Z,83.71
2017-10-06T04:36:33.346Z,83.83
2017-10-06T04:39:00.971Z,83.80
2017-10-06T04:41:28.564Z,83.77
2017-10-06T04:43:56.207Z,83.48
2017-10-06T04:46:24.160Z,83.34
2017-10-06T04:48:51.751Z,83.40
2017-10-06T04:51:19.349Z,83.53
2017-10-06T04:53:47.265Z,83.70
2017-10-06T04:56:14.857Z,83.91
2017-10-06T04:58:42.466Z,83.18
2017-10-06T05:01:10.106Z,83.07
2017-10-06T05:03:37.725Z,83.55
2017-10-06T05:06:05.310Z,83.31
2017-10-06T05:08:33.157Z,83.46
2017-10-06T05:11:00.746Z,83.51
2017-10-06T05:13:28.347Z,83.53
2017-10-06T05:15:56.022Z,83.15
2017-10-06T05:18:23.613Z,83.16
2017-10-06T05:20:51.213Z,82.90
2017-10-06T05:23:18.843Z,82.63
2017-10-06T05:25:46.435Z,82.42
2017-10-06T05:28:14.018Z,81.70
2017-10-06T05:30:41.662Z,82.04
2017-10-06T05:33:09.255Z,81.89
2017-10-06T05:35:36.847Z,82.10
2017-10-06T05:38:04.468Z,82.16
2017-10-06T05:40:32.088Z,82.11
2017-10-06T05:42:59.674Z,81.92
2017-10-06T05:45:27.313Z,81.99
2017-10-06T05:47:54.901Z,81.93
2017-10-06T05:50:22.792Z,81.85
2017-10-06T05:52:50.436Z,81.71
2017-10-06T05:55:18.320Z,81.38
2017-10-06T05:57:45.955Z,81.28
2017-10-06T06:00:13.609Z,81.20
2017-10-06T06:02:41.270Z,81.05
2017-10-06T06:05:08.873Z,80.70
2017-10-06T06:07:36.841Z,80.68
2017-10-06T06:10:04.431Z,80.99
2017-10-06T06:12:32.033Z,81.11
2017-10-06T06:14:59.675Z,81.64
2017-10-06T06:17:27.256Z,83.42
2017-10-06T06:19:54.871Z,84.57
2017-10-06T06:22:22.500Z,84.59
2017-10-06T06:24:50.138Z,84.66
2017-10-06T06:27:17.757Z,84.21
2017-10-06T06:29:45.434Z,83.91
2017-10-06T06:32:13.081Z,83.09
2017-10-06T06:34:40.678Z,83.18
2017-10-06T06:37:08.601Z,83.03
2017-10-06T06:39:36.188Z,82.30
2017-10-06T06:42:03.770Z,81.72
2017-10-06T06:44:31.393Z,81.27
2017-10-06T06:46:59.014Z,81.12
2017-10-06T06:49:26.608Z,80.60
2017-10-06T06:51:54.237Z,79.69
2017-10-06T06:54:21.827Z,80.14
2017-10-06T06:56:49.693Z,79.82
2017-10-06T06:59:17.554Z,80.19
2017-10-06T07:01:45.147Z,80.58
2017-10-06T07:04:12.746Z,80.77
2017-10-06T07:06:40.364Z,81.17
2017-10-06T07:09:07.958Z,82.10
2017-10-06T07:11:35.554Z,83.14
2017-10-06T07:14:03.178Z,83.36
2017-10-06T07:16:31.102Z,84.16
2017-10-06T07:18:58.689Z,83.94
2017-10-06T07:21:26.315Z,84.48
2017-10-06T07:23:53.900Z,85.24
2017-10-06T07:26:21.482Z,85.36
2017-10-06T07:28:49.107Z,85.49
2017-10-06T07:31:16.706Z,85.99
2017-10-06T07:33:44.308Z,86.32
2017-10-06T07:36:11.928Z,86.51
2017-10-06T07:38:39.555Z,86.49
2017-10-06T07:41:07.434Z,86.51
2017-10-06T07:43:35.072Z,87.24
2017-10-06T07:46:02.700Z,87.30
2017-10-06T07:48:30.296Z,87.52
2017-10-06T07:50:57.930Z,87.52
2017-10-06T07:53:25.519Z,87.94
2017-10-06T07:55:53.109Z,87.63
2017-10-06T07:58:20.741Z,87.75
2017-10-06T08:00:48.631Z,87.41
2017-10-06T08:03:16.249Z,87.73
2017-10-06T08:05:43.878Z,87.40
2017-10-06T08:08:11.526Z,87.88
2017-10-06T08:10:39.128Z,87.47
2017-10-06T08:13:06.769Z,86.96
2017-10-06T08:15:34.706Z,87.22
2017-10-06T08:18:02.293Z,86.00
2017-10-06T08:20:29.917Z,86.02
2017-10-06T08:22:57.518Z,85.83
2017-10-06T08:25:25.141Z,85.43
2017-10-06T08:27:52.772Z,84.57
2017-10-06T08:30:20.370Z,84.02
2017-10-06T08:32:47.957Z,82.79
2017-10-06T08:35:15.582Z,82.87
2017-10-06T08:37:43.192Z,82.28
2017-10-06T08:40:11.133Z,82.39
2017-10-06T08:42:39.129Z,82.64
2017-10-06T08:45:06.720Z,82.21
2017-10-06T08:47:34.328Z,82.30
2017-10-06T08:50:01.977Z,82.38
2017-10-06T08:52:29.858Z,81.69
2017-10-06T08:54:57.453Z,81.85
2017-10-06T08:57:25.093Z,82.05
2017-10-06T08:59:52.950Z,82.07
2017-10-06T09:02:20.538Z,81.53
2017-10-06T09:04:48.220Z,81.68
2017-10-06T09:07:15.847Z,81.37
2017-10-06T09:09:43.441Z,81.05
2017-10-06T09:12:11.093Z,80.20
2017-10-06T09:14:38.682Z,79.70
2017-10-06T09:17:06.269Z,79.33
2017-10-06T09:19:33.904Z,78.70
2017-10-06T09:22:01.826Z,78.27
2017-10-06T09:24:29.424Z,78.30
2017-10-06T09:26:57.048Z,78.35
2017-10-06T09:29:24.646Z,77.87
2017-10-06T09:31:52.253Z,77.25
2017-10-06T09:34:19.918Z,77.98
2017-10-06T09:36:47.513Z,77.73
2017-10-06T09:39:15.093Z,77.92
2017-10-06T09:41:42.727Z,78.58
2017-10-06T09:44:10.333Z,79.18
2017-10-06T09:46:37.936Z,79.03
2017-10-06T09:49:05.804Z,79.40
2017-10-06T09:51:33.397Z,80.22
2017-10-06T09:54:01.001Z,80.46
2017-10-06T09:56:28.966Z,80.69
2017-10-06T09:58:56.552Z,81.19
2017-10-06T10:01:24.164Z,80.81
2017-10-06T10:03:51.788Z,81.14
2017-10-06T10:06:19.378Z,81.67
2017-10-06T10:08:46.973Z,82.36
2017-10-06T10:11:14.612Z,82.03
2017-10-06T10:13:42.254Z,82.63
2017-10-06T10:16:10.196Z,82.57
2017-10-06T10:18:37.818Z,83.55
2017-10-06T10:21:05.413Z,84.72
2017-10-06T10:23:33.049Z,85.02
2017-10-06T10:26:00.705Z,85.42
2017-10-06T10:28:28.310Z,85.18
2017-10-06T10:30:55.902Z,85.66
2017-10-06T10:33:23.530Z,85.82
2017-10-06T10:35:51.397Z,85.88
2017-10-06T10:38:19.004Z,85.58
2017-10-06T10:40:46.649Z,85.24
2017-10-06T10:43:14.492Z,85.60
2017-10-06T10:45:42.073Z,84.70
2017-10-06T10:48:09.733Z,83.86
2017-10-06T10:50:37.339Z,83.03
2017-10-06T10:53:04.930Z,80.84
2017-10-06T10:55:32.604Z,80.64
2017-10-06T10:58:00.607Z,80.32
2017-10-06T11:00:28.269Z,80.49
2017-10-06T11:02:55.924Z,81.12
2017-10-06T11:05:23.543Z,81.32
2017-10-06T11:07:51.153Z,82.28
2017-10-06T11:10:19.088Z,83.40
2017-10-06T11:12:46.685Z,84.50
2017-10-06T11:15:14.283Z,84.57
2017-10-06T11:17:41.910Z,83.64
2017-10-06T11:20:09.505Z,83.94
2017-10-06T11:22:37.111Z,82.77
2017-10-06T11:25:04.747Z,83.04
2017-10-06T11:27:32.360Z,83.52
2017-10-06T11:30:00.303Z,83.83
2017-10-06T11:32:27.959Z,83.43
2017-10-06T11:34:55.604Z,82.84
2017-10-06T11:37:23.220Z,81.71
2017-10-06T11:39:50.853Z,81.72
2017-10-06T11:42:18.509Z,81.93
2017-10-06T11:44:46.152Z,79.95
2017-10-06T11:47:13.796Z,79.61
2017-10-06T11:49:41.393Z,79.19
2017-10-06T11:52:08.990Z,80.25
2017-10-06T11:54:36.626Z,80.77
2017-10-06T11:57:04.246Z,82.55
2017-10-06T11:59:31.847Z,83.98
2017-10-06T12:01:59.491Z,84.64
2017-10-06T12:04:27.376Z,84.78
2017-10-06T12:06:54.972Z,84.56
2017-10-06T12:09:22.840Z,84.19
2017-10-06T12:11:50.442Z,83.81
2017-10-06T12:14:18.335Z,83.17
2017-10-06T12:16:46.304Z,83.21
2017-10-06T12:19:13.913Z,82.82
2017-10-06T12:21:41.511Z,82.55
2017-10-06T12:24:09.154Z,80.75
2017-10-06T12:26:37.063Z,80.40
2017-10-06T12:29:04.678Z,78.71
2017-10-06T12:31:32.325Z,76.72
2017-10-06T12:33:59.910Z,76.16
2017-10-06T12:36:27.495Z,75.95
2017-10-06T12:38:55.162Z,74.67
2017-10-06T12:41:22.757Z,76.42
2017-10-06T12:43:50.358Z,76.25
2017-10-06T12:46:18.009Z,76.18
2017-10-06T12:48:45.609Z,74.13
2017-10-06T12:51:13.485Z,73.40
2017-10-06T12:53:41.128Z,73.79
2017-10-06T12:56:08.729Z,74.15
2017-10-06T12:58:36.342Z,73.76
2017-10-06T13:01:03.976Z,73.96
2017-10-06T13:03:31.572Z,72.84
2017-10-06T13:05:59.196Z,70.89
2017-10-06T13:08:26.834Z,70.43
2017-10-06T13:10:54.442Z,70.27
2017-10-06T13:13:22.048Z,70.69
2017-10-06T13:15:49.709Z,70.50
2017-10-06T13:18:17.322Z,70.91
2017-10-06T13:20:45.343Z,71.32
2017-10-06T13:23:12.980Z,71.15
2017-10-06T13:25:40.592Z,73.39
2017-10-06T13:28:08.225Z,75.96
2017-10-06T13:30:35.848Z,77.76
2017-10-06T13:33:03.456Z,79.31
2017-10-06T13:35:31.108Z,80.98
2017-10-06T13:37:58.737Z,82.00
2017-10-06T13:40:26.339Z,82.47
2017-10-06T13:42:53.959Z,82.62
2017-10-06T13:45:21.968Z,83.03
2017-10-06T13:47:49.570Z,82.65
2017-10-06T13:50:17.203Z,83.41
2017-10-06T13:52:44.855Z,83.98
2017-10-06T13:55:12.461Z,84.65
2017-10-06T13:57:40.073Z,85.45
2017-10-06T14:00:07.739Z,85.35
2017-10-06T14:02:35.332Z,84.15
2017-10-06T14:05:02.999Z,85.77
2017-10-06T14:07:30.643Z,86.32
2017-10-06T14:09:58.245Z,85.81
2017-10-06T14:12:26.065Z,86.44
2017-10-06T14:14:53.695Z,87.51
2017-10-06T14:17:21.285Z,88.24
2017-10-06T14:19:48.889Z,89.57
2017-10-06T14:22:16.812Z,86.50
2017-10-06T14:24:44.459Z,84.84
2017-10-06T14:27:12.056Z,85.79
2017-10-06T14:29:39.714Z,86.90
2017-10-06T14:32:07.323Z,87.38
2017-10-06T14:34:34.919Z,88.04
2017-10-06T14:37:02.582Z,88.76
2017-10-06T14:39:30.170Z,89.08
2017-10-06T14:41:57.822Z,88.39
2017-10-06T14:44:25.447Z,88.01
2017-10-06T14:46:53.057Z,87.94
2017-10-06T14:49:20.661Z,88.22
2017-10-06T14:51:48.309Z,88.66
2017-10-06T14:54:16.226Z,88.92
2017-10-06T14:56:43.825Z,89.03
2017-10-06T14:59:11.472Z,89.35
2017-10-06T15:01:39.434Z,89.65
2017-10-06T15:04:07.044Z,89.77
2017-10-06T15:06:34.701Z,90.01
2017-10-06T15:09:02.315Z,89.90
2017-10-06T15:11:29.935Z,89.93
2017-10-06T15:13:57.590Z,90.20
2017-10-06T15:16:25.190Z,89.43
2017-10-06T15:18:52.804Z,89.86
2017-10-06T15:21:20.459Z,89.97
2017-10-06T15:23:48.074Z,89.64
2017-10-06T15:26:15.690Z,89.47
2017-10-06T15:28:43.329Z,89.76
2017-10-06T15:31:10.932Z,89.04
2017-10-06T15:33:38.849Z,88.88
2017-10-06T15:36:06.805Z,89.21
2017-10-06T15:38:34.419Z,89.32
2017-10-06T15:41:02.043Z,89.13
2017-10-06T15:43:29.704Z,89.27
2017-10-06T15:45:57.317Z,89.03
2017-10-06T15:48:24.957Z,89.08
2017-10-06T15:50:52.604Z,88.91
2017-10-06T15:53:20.271Z,89.16
2017-10-06T15:55:47.877Z,88.86
2017-10-06T15:58:15.524Z,88.93
2017-10-06T16:00:43.149Z,88.77
2017-10-06T16:03:10.752Z,88.57
2017-10-06T16:05:38.399Z,89.13
2017-10-06T16:08:06.028Z,89.16
2017-10-06T16:10:33.627Z,89.36
2017-10-06T16:13:01.556Z,89.09
2017-10-06T16:15:29.426Z,88.82
2017-10-06T16:17:57.085Z,88.61
2017-10-06T16:20:25.050Z,88.66
2017-10-06T16:22:52.645Z,88.76
2017-10-06T16:25:20.260Z,87.99
2017-10-06T16:27:48.249Z,88.08
2017-10-06T16:30:15.836Z,88.34
2017-10-06T16:32:43.444Z,88.22
2017-10-06T16:35:11.081Z,87.71
2017-10-06T16:37:38.684Z,87.75
2017-10-06T16:40:06.565Z,87.69
2017-10-06T16:42:34.284Z,87.55
2017-10-06T16:45:01.872Z,87.35
2017-10-06T16:47:29.479Z,87.74
2017-10-06T16:49:57.118Z,87.24
2017-10-06T16:52:24.773Z,86.67
2017-10-06T16:54:52.369Z,86.77
2017-10-06T16:57:20.005Z,87.15
2017-10-06T16:59:47.615Z,87.36
2017-10-06T17:02:15.247Z,87.44
2017-10-06T17:04:42.896Z,87.77
2017-10-06T17:07:10.494Z,87.39
2017-10-06T17:09:38.091Z,87.45
2017-10-06T17:12:05.728Z,87.53
2017-10-06T17:14:33.316Z,87.14
2017-10-06T17:17:00.929Z,87.21
2017-10-06T17:19:28.565Z,87.80
2017-10-06T17:21:56.196Z,88.18
2017-10-06T17:24:23.831Z,88.07
2017-10-06T17:26:51.477Z,88.02
2017-10-06T17:29:19.065Z,88.22
2017-10-06T17:31:46.664Z,88.35
2017-10-06T17:34:14.308Z,88.18
2017-10-06T17:36:41.919Z,88.21
2017-10-06T17:39:09.522Z,88.10
2017-10-06T17:41:37.419Z,88.24
2017-10-06T17:44:05.022Z,88.13
2017-10-06T17:46:32.683Z,88.14
2017-10-06T17:49:00.323Z,88.12
2017-10-06T17:51:27.912Z,88.15
2017-10-06T17:53:55.505Z,88.20
2017-10-06T17:56:23.398Z,88.16
2017-10-06T17:58:51.004Z,88.01
2017-10-06T18:01:18.610Z,88.25
2017-10-06T18:03:46.242Z,88.02
2017-10-06T18:06:13.843Z,88.14
2017-10-06T18:08:41.718Z,87.96
2017-10-06T18:11:09.378Z,87.89
2017-10-06T18:13:36.986Z,87.95
2017-10-06T18:16:04.908Z,87.82
2017-10-06T18:18:32.876Z,87.96
2017-10-06T18:21:00.745Z,88.01
2017-10-06T18:23:28.344Z,88.22
2017-10-06T18:25:56.273Z,87.90
2017-10-06T18:28:23.873Z,87.34
2017-10-06T18:30:51.481Z,88.00
2017-10-06T18:33:19.465Z,88.07
2017-10-06T18:35:47.076Z,88.07
2017-10-06T18:38:14.686Z,88.14
2017-10-06T18:40:42.316Z,88.36
2017-10-06T18:43:10.329Z,88.06
2017-10-06T18:45:38.197Z,88.06
2017-10-06T18:48:05.851Z,87.82
2017-10-06T18:50:33.726Z,87.96
2017-10-06T18:53:01.590Z,88.34
2017-10-06T18:55:29.560Z,88.23
2017-10-06T18:57:57.167Z,88.61
2017-10-06T19:00:25.093Z,88.51
2017-10-06T19:02:52.731Z,88.65
2017-10-06T19:05:20.355Z,88.99
2017-10-06T19:07:47.982Z,89.11
2017-10-06T19:10:15.623Z,89.15
2017-10-06T19:12:43.233Z,89.15
2017-10-06T19:15:10.825Z,89.17
2017-10-06T19:17:38.458Z,89.18
2017-10-06T19:20:06.053Z,89.38
2017-10-06T19:22:33.674Z,89.53
2017-10-06T19:25:01.301Z,89.37
2017-10-06T19:27:28.892Z,89.24
2017-10-06T19:29:56.489Z,89.38
2017-10-06T19:32:24.137Z,89.42
2017-10-06T19:34:51.728Z,89.29
2017-10-06T19:37:19.329Z,89.01
2017-10-06T19:39:46.968Z,88.67
2017-10-06T19:42:14.577Z,88.60
2017-10-06T19:44:42.194Z,88.78
2017-10-06T19:47:09.864Z,88.78
2017-10-06T19:49:37.487Z,88.87
2017-10-06T19:52:05.081Z,88.62
2017-10-06T19:54:32.979Z,88.75
2017-10-06T19:57:00.581Z,88.46
2017-10-06T19:59:28.181Z,88.87
2017-10-06T20:01:56.292Z,88.65
2017-10-06T20:04:23.915Z,88.20
2017-10-06T20:06:51.516Z,88.49
2017-10-06T20:09:19.667Z,88.74
2017-10-06T20:11:47.283Z,88.62
2017-10-06T20:14:15.193Z,88.52
2017-10-06T20:16:43.286Z,88.53
2017-10-06T20:19:10.889Z,88.60
2017-10-06T20:21:38.490Z,88.65
2017-10-06T20:24:06.152Z,88.70
2017-10-06T20:26:33.741Z,88.85
2017-10-06T20:29:01.411Z,88.94
2017-10-06T20:31:29.153Z,89.05
2017-10-06T20:33:56.749Z,89.14
2017-10-06T20:36:25.178Z,89.68
2017-10-06T20:38:52.809Z,89.82
2017-10-06T20:41:20.400Z,89.70
2017-10-06T20:43:48.008Z,89.84
2017-10-06T20:46:15.680Z,89.95
2017-10-06T20:48:43.291Z,90.10
2017-10-06T20:51:10.887Z,90.15
2017-10-06T20:53:38.526Z,90.57
2017-10-06T20:56:06.124Z,90.82
2017-10-06T20:58:33.731Z,91.13
2017-10-06T21:01:01.385Z,90.99
2017-10-06T21:03:29.276Z,91.29
2017-10-06T21:05:56.891Z,91.57
2017-10-06T21:08:24.533Z,91.57
2017-10-06T21:10:52.151Z,91.47
2017-10-06T21:13:19.754Z,91.34
2017-10-06T21:15:47.688Z,91.42
2017-10-06T21:18:15.280Z,91.47
2017-10-06T21:20:42.881Z,91.41
2017-10-06T21:23:10.528Z,91.35
2017-10-06T21:25:38.129Z,91.20
2017-10-06T21:28:05.730Z,91.18
2017-10-06T21:30:33.369Z,91.37
2017-10-06T21:33:00.984Z,91.63
2017-10-06T21:35:28.589Z,91.83
2017-10-06T21:37:56.233Z,92.00
2017-10-06T21:40:23.826Z,91.78
2017-10-06T21:42:51.422Z,91.81
2017-10-06T21:45:19.336Z,91.77
2017-10-06T21:47:46.935Z,91.89
2017-10-06T21:50:14.531Z,91.84
2017-10-06T21:52:42.191Z,91.89
2017-10-06T21:55:09.791Z,91.90
2017-10-06T21:57:37.408Z,91.85
2017-10-06T22:00:05.313Z,91.60
2017-10-06T22:02:32.925Z,91.47
2017-10-06T22:05:00.581Z,91.34
2017-10-06T22:07:28.225Z,91.26
2017-10-06T22:09:56.174Z,91.41
2017-10-06T22:12:23.788Z,91.32
2017-10-06T22:14:51.425Z,91.33
2017-10-06T22:17:19.021Z,91.26
2017-10-06T22:19:46.614Z,91.22
2017-10-06T22:22:14.252Z,91.12
2017-10-06T22:24:41.849Z,91.16
2017-10-06T22:27:09.714Z,91.12
2017-10-06T22:29:37.352Z,91.14
2017-10-06T22:32:04.945Z,90.97
2017-10-06T22:34:32.804Z,90.87
2017-10-06T22:37:00.444Z,90.93
2017-10-06T22:39:28.335Z,91.04
2017-10-06T22:41:56.206Z,91.36
2017-10-06T22:44:23.837Z,91.27
2017-10-06T22:46:51.434Z,91.19
2017-10-06T22:49:19.026Z,91.12
2017-10-06T22:51:46.671Z,91.04
2017-10-06T22:54:14.278Z,91.18
2017-10-06T22:56:41.868Z,91.26
2017-10-06T22:59:09.502Z,91.37
2017-10-06T23:01:37.093Z,91.39
2017-10-06T23:04:04.701Z,91.34
2017-10-06T23:06:32.633Z,91.30
2017-10-06T23:09:00.237Z,90.97
2017-10-06T23:11:27.839Z,91.01
2017-10-06T23:13:55.480Z,91.10
2017-10-06T23:16:23.071Z,91.07
2017-10-06T23:18:50.669Z,91.32
2017-10-06T23:21:18.325Z,91.59
2017-10-06T23:23:45.924Z,91.52
2017-10-06T23:26:13.510Z,91.39
2017-10-06T23:28:41.149Z,91.37
2017-10-06T23:31:08.763Z,91.35
2017-10-06T23:33:36.368Z,91.28
2017-10-06T23:36:03.990Z,91.37
2017-10-06T23:38:31.585Z,91.30
2017-10-06T23:40:59.175Z,91.30
2017-10-06T23:43:27.164Z,91.29
2017-10-06T23:45:54.751Z,91.62
2017-10-06T23:48:22.337Z,91.43
2017-10-06T23:50:50.261Z,91.32
2017-10-06T23:53:17.860Z,91.29
2017-10-06T23:55:45.448Z,91.55
2017-10-06T23:58:13.078Z,91.46
